Time;durP1;ratioP1;P1;durP2;ratioP2;P2;SDS_P1;SDS_P2;PMS_P1;PMS_P2;Temp;Humidity;BMP_temperature;BMP_pressure;BME280_temperature;BME280_humidity;BME280_pressure;Samples;Min_cycle;Max_cycle;Signal;HPM_P1;HPM_P2
2021/05/20 00:00:34;;;;;;;0.83;0.30;;;16.60;99.90;;;;;;5136264;27;20214;-89
2021/05/20 00:03:05;;;;;;;1.07;0.30;;;16.90;99.90;;;;;;5137742;27;20240;-89
2021/05/20 00:05:36;;;;;;;0.40;0.40;;;17.00;99.90;;;;;;5119086;27;20209;-88
2021/05/20 00:08:08;;;;;;;0.93;0.40;;;16.90;99.90;;;;;;5138066;27;20217;-88
2021/05/20 00:10:38;;;;;;;2.40;0.70;;;17.30;99.90;;;;;;5136869;27;20220;-88
2021/05/20 00:13:09;;;;;;;2.67;0.40;;;17.50;99.90;;;;;;5138139;27;20225;-88
2021/05/20 00:15:41;;;;;;;1.13;0.40;;;17.60;99.90;;;;;;5137861;27;20305;-88
2021/05/20 00:18:12;;;;;;;0.83;0.37;;;17.60;99.90;;;;;;5143415;27;20217;-88
2021/05/20 00:20:45;;;;;;;2.07;0.50;;;17.50;98.50;;;;;;5137765;28;20220;-88
2021/05/20 00:23:18;;;;;;;1.20;0.50;;;17.40;98.30;;;;;;5121378;28;20247;-89
2021/05/20 00:25:49;;;;;;;0.77;0.50;;;17.30;97.60;;;;;;5105517;28;20237;-88
2021/05/20 00:28:20;;;;;;;0.30;0.30;;;17.40;99.90;;;;;;5119644;28;20203;-88
2021/05/20 00:30:55;;;;;;;0.30;0.30;;;17.40;99.90;;;;;;5117986;28;20206;-88
2021/05/20 00:33:26;;;;;;;1.23;0.50;;;17.00;99.90;;;;;;5117325;28;20205;-86
2021/05/20 00:35:57;;;;;;;0.57;0.30;;;17.30;99.90;;;;;;5116473;28;20194;-87
2021/05/20 00:38:28;;;;;;;0.47;0.30;;;17.40;99.90;;;;;;5117843;28;20217;-87
2021/05/20 00:41:02;;;;;;;1.13;0.47;;;17.30;99.90;;;;;;5115801;28;20202;-87
2021/05/20 00:43:33;;;;;;;1.00;0.50;;;17.40;99.90;;;;;;5125144;27;20227;-87
2021/05/20 00:46:07;;;;;;;1.00;0.50;;;17.30;99.90;;;;;;5136796;27;20205;-88
2021/05/20 00:48:38;;;;;;;0.60;0.30;;;17.20;99.60;;;;;;5137727;27;20232;-88
2021/05/20 00:51:09;;;;;;;1.27;0.43;;;17.20;99.60;;;;;;5119086;27;20255;-87
2021/05/20 00:53:41;;;;;;;0.87;0.50;;;17.20;99.20;;;;;;5120288;27;20217;-88
2021/05/20 00:56:14;;;;;;;1.13;0.60;;;17.40;99.00;;;;;;5141222;27;20206;-87
2021/05/20 00:58:46;;;;;;;1.30;0.70;;;17.80;99.90;;;;;;5140880;27;20260;-88
2021/05/20 01:01:20;;;;;;;0.63;0.30;;;18.30;99.90;;;;;;5140153;27;20210;-88
2021/05/20 01:03:50;;;;;;;0.50;0.40;;;18.50;97.90;;;;;;5143339;27;20205;-87
2021/05/20 01:06:21;;;;;;;0.97;0.47;;;19.20;97.70;;;;;;5145301;27;20205;-88
2021/05/20 01:08:53;;;;;;;0.30;0.30;;;19.50;97.60;;;;;;5140168;27;20198;-87
2021/05/20 01:11:23;;;;;;;0.60;0.50;;;19.00;98.20;;;;;;5156782;27;20205;-88
2021/05/20 01:13:54;;;;;;;1.03;0.50;;;19.70;97.40;;;;;;5157648;27;20197;-88
2021/05/20 01:16:27;;;;;;;1.03;0.60;;;19.40;96.30;;;;;;5155239;27;20265;-87
2021/05/20 01:18:58;;;;;;;1.10;0.50;;;19.90;96.30;;;;;;5154546;27;20201;-87
2021/05/20 01:21:32;;;;;;;0.73;0.53;;;20.30;95.20;;;;;;5133939;27;20197;-88
2021/05/20 01:24:04;;;;;;;3.17;0.53;;;19.90;95.70;;;;;;5138615;27;20205;-87
2021/05/20 01:26:40;;;;;;;1.27;0.40;;;20.20;96.10;;;;;;5138456;27;20686;-87
2021/05/20 01:29:11;;;;;;;1.10;0.50;;;19.60;95.70;;;;;;5136525;27;20212;-85
2021/05/20 01:31:42;;;;;;;1.20;0.33;;;19.60;95.70;;;;;;5135541;27;20667;-88
2021/05/20 01:34:13;;;;;;;1.27;0.50;;;19.80;94.60;;;;;;5134925;27;20266;-88
2021/05/20 01:36:46;;;;;;;0.50;0.30;;;19.50;95.40;;;;;;5135393;27;20269;-88
2021/05/20 01:39:17;;;;;;;2.73;0.63;;;19.70;95.50;;;;;;5135364;27;20212;-87
2021/05/20 01:41:49;;;;;;;1.73;0.60;;;19.80;97.20;;;;;;5117937;27;20237;-87
2021/05/20 01:44:21;;;;;;;0.90;0.33;;;19.60;95.00;;;;;;5135235;27;20308;-87
2021/05/20 01:46:53;;;;;;;0.57;0.47;;;19.00;95.50;;;;;;5136567;27;20205;-87
2021/05/20 01:49:24;;;;;;;0.87;0.30;;;19.60;95.90;;;;;;5136856;27;20201;-88
2021/05/20 01:51:56;;;;;;;0.67;0.53;;;20.20;95.20;;;;;;5135411;27;20205;-88
2021/05/20 01:54:27;;;;;;;0.70;0.57;;;20.60;94.50;;;;;;5136770;27;20201;-88
2021/05/20 01:56:59;;;;;;;1.67;0.70;;;20.90;94.80;;;;;;5135918;27;20213;-88
2021/05/20 01:59:29;;;;;;;2.00;0.70;;;20.90;95.10;;;;;;5120401;27;20206;-89
2021/05/20 02:01:59;;;;;;;0.90;0.50;;;20.90;94.50;;;;;;5139408;27;20260;-88
2021/05/20 02:04:31;;;;;;;2.70;0.77;;;20.20;94.90;;;;;;5137740;28;20205;-88
2021/05/20 02:07:04;;;;;;;1.03;0.47;;;19.30;96.20;;;;;;5137064;28;20224;-89
2021/05/20 02:09:36;;;;;;;1.67;0.60;;;18.00;97.40;;;;;;5135197;28;20700;-89
2021/05/20 02:12:09;;;;;;;0.80;0.47;;;17.10;98.20;;;;;;5116954;28;20212;-89
2021/05/20 02:14:40;;;;;;;1.37;0.57;;;17.00;99.00;;;;;;5137514;28;20228;-90
2021/05/20 02:17:11;;;;;;;3.03;0.80;;;16.50;99.90;;;;;;5136765;28;20564;-88
2021/05/20 02:19:42;;;;;;;1.93;0.90;;;15.70;99.90;;;;;;5117815;28;20202;-89
2021/05/20 02:22:15;;;;;;;1.77;0.83;;;15.40;99.90;;;;;;5134689;28;20225;-88
2021/05/20 02:24:46;;;;;;;4.20;0.87;;;15.10;99.90;;;;;;5139096;27;20270;-89
2021/05/20 02:27:16;;;;;;;1.07;0.50;;;14.80;99.90;;;;;;5139300;27;20215;-88
2021/05/20 02:29:47;;;;;;;3.10;0.70;;;14.50;99.90;;;;;;5139715;27;20208;-89
2021/05/20 02:32:18;;;;;;;1.50;0.53;;;14.40;99.90;;;;;;5139110;27;20205;-89
2021/05/20 02:34:49;;;;;;;3.80;0.80;;;14.30;99.90;;;;;;5139921;27;20606;-89
2021/05/20 02:37:21;;;;;;;0.93;0.60;;;14.20;99.90;;;;;;5143205;27;20193;-89
2021/05/20 02:39:52;;;;;;;1.40;0.80;;;14.20;99.90;;;;;;5160183;27;20270;-89
2021/05/20 02:42:22;;;;;;;1.57;0.90;;;14.20;99.90;;;;;;5159010;27;20221;-89
2021/05/20 02:44:54;;;;;;;1.73;0.80;;;14.00;99.90;;;;;;5151359;27;20197;-88
2021/05/20 02:47:24;;;;;;;1.13;0.80;;;13.80;99.90;;;;;;5123575;27;20213;-90
2021/05/20 02:49:56;;;;;;;1.07;0.70;;;13.70;99.90;;;;;;5126201;27;20217;-89
2021/05/20 02:52:30;;;;;;;0.80;0.67;;;13.50;99.90;;;;;;5120571;28;20608;-90
2021/05/20 02:55:02;;;;;;;2.97;0.90;;;13.40;99.90;;;;;;5119855;28;20206;-90
2021/05/20 02:57:34;;;;;;;0.70;0.53;;;13.10;99.90;;;;;;5120090;28;20214;-90
2021/05/20 03:00:05;;;;;;;1.17;0.80;;;12.90;99.90;;;;;;5118374;28;20202;-90
2021/05/20 03:02:37;;;;;;;1.37;0.60;;;12.80;99.90;;;;;;5120810;28;20259;-89
2021/05/20 03:05:09;;;;;;;1.70;0.80;;;12.80;99.90;;;;;;5118646;28;20218;-88
2021/05/20 03:07:43;;;;;;;1.73;0.70;;;12.60;99.90;;;;;;5118767;28;20214;-89
2021/05/20 03:10:15;;;;;;;1.27;0.70;;;12.40;99.90;;;;;;5116816;28;20237;-90
2021/05/20 03:12:46;;;;;;;0.70;0.70;;;12.20;99.90;;;;;;5118165;28;20209;-89
2021/05/20 03:15:19;;;;;;;1.33;0.80;;;12.00;99.90;;;;;;5118384;28;20275;-89
2021/05/20 03:17:50;;;;;;;1.73;0.77;;;11.90;99.90;;;;;;5118336;28;20210;-88
2021/05/20 03:20:21;;;;;;;2.87;0.60;;;11.90;99.90;;;;;;5117056;28;20225;-89
2021/05/20 03:22:54;;;;;;;2.00;0.70;;;11.80;99.90;;;;;;5117668;28;20222;-89
2021/05/20 03:25:25;;;;;;;1.67;0.60;;;11.50;99.90;;;;;;5117829;28;20297;-88
2021/05/20 03:27:56;;;;;;;1.20;0.67;;;11.50;99.90;;;;;;5117528;28;20210;-89
2021/05/20 03:30:27;;;;;;;1.10;0.70;;;11.40;99.90;;;;;;5116567;28;20229;-88
2021/05/20 03:32:58;;;;;;;3.03;0.67;;;11.40;99.90;;;;;;5120133;28;20214;-89
2021/05/20 03:35:29;;;;;;;1.10;0.80;;;11.20;99.90;;;;;;5120021;28;20604;-88
2021/05/20 03:38:03;;;;;;;1.83;0.80;;;11.10;99.90;;;;;;5117699;28;20229;-89
2021/05/20 03:40:34;;;;;;;1.53;0.80;;;11.00;99.90;;;;;;5115991;28;20210;-89
2021/05/20 03:43:04;;;;;;;1.97;1.00;;;10.90;99.90;;;;;;5117137;28;20237;-88
2021/05/20 03:45:35;;;;;;;1.33;0.70;;;10.90;99.90;;;;;;5117314;28;20209;-89
2021/05/20 03:48:07;;;;;;;1.27;0.70;;;10.90;99.90;;;;;;5118116;27;20218;-90
2021/05/20 03:50:40;;;;;;;1.00;0.80;;;10.90;99.90;;;;;;5137511;27;20209;-89
2021/05/20 03:53:13;;;;;;;1.03;0.80;;;10.80;99.90;;;;;;5137438;27;20206;-89
2021/05/20 03:55:46;;;;;;;0.97;0.80;;;10.70;99.90;;;;;;5137615;27;20682;-89
2021/05/20 03:58:17;;;;;;;1.20;0.77;;;10.70;99.90;;;;;;5099906;28;20209;-89
2021/05/20 04:00:48;;;;;;;2.90;0.90;;;10.70;99.90;;;;;;5116096;28;20214;-90
2021/05/20 04:03:27;;;;;;;1.50;1.00;;;10.70;99.90;;;;;;5116904;28;20691;-89
2021/05/20 04:06:00;;;;;;;2.67;0.90;;;10.60;99.90;;;;;;5116769;28;20263;-89
2021/05/20 04:08:36;;;;;;;1.53;0.90;;;10.50;99.90;;;;;;5117203;28;20222;-89
2021/05/20 04:11:07;;;;;;;1.30;0.80;;;10.50;99.90;;;;;;5116258;28;20198;-89
2021/05/20 04:13:39;;;;;;;1.70;0.83;;;10.50;99.90;;;;;;5116594;28;20231;-89
2021/05/20 04:16:11;;;;;;;1.53;0.87;;;10.40;99.90;;;;;;5119782;28;20214;-89
2021/05/20 04:18:44;;;;;;;1.37;1.10;;;10.30;99.90;;;;;;5117266;28;20343;-88
2021/05/20 04:21:15;;;;;;;1.47;0.97;;;10.40;99.90;;;;;;5115515;28;20218;-89
2021/05/20 04:23:48;;;;;;;1.93;0.90;;;10.40;99.90;;;;;;5098799;28;20722;-88
2021/05/20 04:26:19;;;;;;;1.10;0.90;;;10.30;99.90;;;;;;5116400;28;20694;-89
2021/05/20 04:28:50;;;;;;;2.63;0.97;;;10.20;99.90;;;;;;5116518;28;20202;-89
2021/05/20 04:31:21;;;;;;;1.20;0.90;;;10.20;99.90;;;;;;5117145;28;20214;-87
2021/05/20 04:33:52;;;;;;;1.83;0.97;;;10.20;99.90;;;;;;5119791;28;20206;-88
2021/05/20 04:36:23;;;;;;;1.00;0.90;;;10.20;99.90;;;;;;5118723;28;20221;-88
2021/05/20 04:38:55;;;;;;;1.47;0.83;;;10.10;99.90;;;;;;5118805;28;20214;-89
2021/05/20 04:41:31;;;;;;;1.77;1.30;;;10.00;99.90;;;;;;5097633;28;20367;-88
2021/05/20 04:44:03;;;;;;;1.57;1.10;;;10.00;99.90;;;;;;5115672;28;20244;-88
2021/05/20 04:46:35;;;;;;;4.63;1.30;;;10.00;99.90;;;;;;5116857;28;20648;-89
2021/05/20 04:49:11;;;;;;;1.53;1.13;;;10.10;99.90;;;;;;5116676;28;20202;-89
2021/05/20 04:51:43;;;;;;;2.13;1.17;;;10.10;99.90;;;;;;5115550;28;20198;-89
2021/05/20 04:54:16;;;;;;;2.27;0.97;;;10.10;99.90;;;;;;5117445;28;20665;-89
2021/05/20 04:56:47;;;;;;;2.13;1.00;;;10.10;99.90;;;;;;5109082;28;20213;-89
2021/05/20 04:59:17;;;;;;;1.83;1.10;;;10.20;99.90;;;;;;5137506;27;20198;-89
2021/05/20 05:01:48;;;;;;;2.97;0.90;;;10.10;99.90;;;;;;5138188;27;20208;-90
2021/05/20 05:04:19;;;;;;;3.07;0.97;;;10.00;99.90;;;;;;5120508;28;20237;-90
2021/05/20 05:06:49;;;;;;;2.87;1.30;;;10.00;99.90;;;;;;5117687;28;20611;-89
2021/05/20 05:09:22;;;;;;;1.73;1.10;;;10.00;99.90;;;;;;5117288;28;20206;-89
2021/05/20 05:11:53;;;;;;;4.93;1.23;;;9.90;99.90;;;;;;5116123;28;20217;-89
2021/05/20 05:14:23;;;;;;;2.10;1.07;;;9.90;99.90;;;;;;5116755;28;20210;-89
2021/05/20 05:16:54;;;;;;;3.23;1.07;;;9.90;99.90;;;;;;5116874;28;20263;-89
2021/05/20 05:19:24;;;;;;;1.73;1.47;;;10.00;99.90;;;;;;5116090;28;20319;-87
2021/05/20 05:21:56;;;;;;;2.00;1.40;;;10.00;99.90;;;;;;5115791;28;20210;-89
2021/05/20 05:24:29;;;;;;;2.93;1.20;;;10.00;99.90;;;;;;5116697;28;20242;-89
2021/05/20 05:27:01;;;;;;;1.80;1.20;;;9.80;99.90;;;;;;5115427;28;20620;-88
2021/05/20 05:29:33;;;;;;;2.10;1.37;;;9.80;99.90;;;;;;5120606;28;20207;-89
2021/05/20 05:32:05;;;;;;;1.33;1.10;;;9.70;99.90;;;;;;5097110;28;20210;-88
2021/05/20 05:34:36;;;;;;;1.80;1.17;;;9.70;99.90;;;;;;5115504;28;20206;-88
2021/05/20 05:37:06;;;;;;;1.67;1.27;;;9.70;99.90;;;;;;5115457;28;20211;-88
2021/05/20 05:39:38;;;;;;;1.93;1.10;;;9.50;99.90;;;;;;5115474;28;20295;-88
2021/05/20 05:42:09;;;;;;;1.40;1.00;;;9.60;99.90;;;;;;5114189;28;20204;-87
2021/05/20 05:45:01;;;;;;;1.30;1.07;;;9.50;99.90;;;;;;5119970;28;20243;-89
2021/05/20 05:47:32;;;;;;;1.00;0.80;;;9.40;99.90;;;;;;5149186;22;20244;-88
2021/05/20 05:50:05;;;;;;;3.07;1.20;;;9.40;99.90;;;;;;5056701;28;20218;-88
2021/05/20 05:52:35;;;;;;;3.13;1.07;;;9.40;99.90;;;;;;5056562;28;20215;-89
2021/05/20 05:55:11;;;;;;;2.93;1.07;;;9.30;99.90;;;;;;5055997;28;20208;-89
2021/05/20 05:57:42;;;;;;;2.17;1.20;;;9.30;99.90;;;;;;5055303;28;20354;-88
2021/05/20 06:00:14;;;;;;;2.43;1.30;;;9.30;99.90;;;;;;5055363;28;20212;-89
2021/05/20 06:02:47;;;;;;;1.80;0.93;;;9.30;99.90;;;;;;5064627;28;20199;-88
2021/05/20 06:05:18;;;;;;;1.10;0.90;;;9.20;99.90;;;;;;5076691;28;20215;-87
2021/05/20 06:10:43;;;;;;;1.63;0.90;;;9.30;99.90;;;;;;5037139;28;20213;-89
2021/05/20 06:13:15;;;;;;;1.67;1.07;;;9.30;99.90;;;;;;5036820;28;20221;-89
2021/05/20 06:15:49;;;;;;;1.33;1.00;;;9.20;99.90;;;;;;5051315;28;20694;-89
2021/05/20 06:18:20;;;;;;;1.67;1.20;;;9.10;99.90;;;;;;5037211;28;20605;-88
2021/05/20 06:20:53;;;;;;;1.77;1.00;;;9.20;99.90;;;;;;5035909;28;20216;-88
2021/05/20 06:23:24;;;;;;;1.23;0.97;;;9.10;99.90;;;;;;5050706;28;20252;-89
2021/05/20 06:25:57;;;;;;;1.33;0.90;;;9.10;99.90;;;;;;5036241;28;20608;-89
2021/05/20 06:28:28;;;;;;;1.43;0.73;;;9.20;99.90;;;;;;5037649;28;20209;-88
2021/05/20 06:30:59;;;;;;;1.43;0.83;;;9.10;99.90;;;;;;5037670;28;20216;-89
2021/05/20 06:33:30;;;;;;;1.27;0.90;;;9.10;99.90;;;;;;5039633;28;20276;-89
2021/05/20 06:36:02;;;;;;;2.77;0.80;;;9.00;99.90;;;;;;5042341;28;20220;-87
2021/05/20 06:38:34;;;;;;;1.90;0.97;;;9.00;99.90;;;;;;5051688;28;20193;-89
2021/05/20 06:41:09;;;;;;;1.33;0.90;;;9.00;99.90;;;;;;5054579;28;20207;-89
2021/05/20 06:43:40;;;;;;;2.27;1.20;;;9.00;99.90;;;;;;5055931;28;20208;-88
2021/05/20 06:46:11;;;;;;;3.40;1.20;;;9.00;99.90;;;;;;5055970;28;20257;-89
2021/05/20 06:48:42;;;;;;;1.33;0.80;;;9.00;99.90;;;;;;5055574;28;20207;-89
2021/05/20 06:51:13;;;;;;;1.43;0.80;;;8.90;99.90;;;;;;5054536;28;20223;-89
2021/05/20 06:53:47;;;;;;;2.53;0.80;;;9.00;99.90;;;;;;5047079;28;20227;-89
2021/05/20 06:56:21;;;;;;;1.60;1.10;;;9.00;99.90;;;;;;5035992;28;20215;-89
2021/05/20 07:01:45;;;;;;;1.13;1.00;;;9.10;99.90;;;;;;5035245;28;20209;-89
2021/05/20 07:04:17;;;;;;;0.90;0.77;;;9.20;99.90;;;;;;5034839;28;20232;-88
2021/05/20 07:06:48;;;;;;;2.97;1.07;;;9.20;99.90;;;;;;5034652;28;20212;-88
2021/05/20 07:09:29;;;;;;;1.70;0.80;;;9.30;99.90;;;;;;5049682;28;20207;-88
2021/05/20 07:12:03;;;;;;;3.77;0.90;;;9.30;99.90;;;;;;5059777;28;20211;-88
2021/05/20 07:14:34;;;;;;;1.87;0.97;;;9.30;99.90;;;;;;5070453;28;20212;-89
2021/05/20 07:17:06;;;;;;;1.97;0.90;;;9.40;99.90;;;;;;5076095;28;20204;-88
2021/05/20 07:19:37;;;;;;;2.20;0.90;;;9.40;99.90;;;;;;5076490;28;20217;-88
2021/05/20 07:22:08;;;;;;;1.10;0.90;;;9.40;99.90;;;;;;5058582;28;20220;-88
2021/05/20 07:24:40;;;;;;;2.07;0.70;;;9.50;99.90;;;;;;5058853;28;20223;-88
2021/05/20 07:27:12;;;;;;;4.90;1.20;;;9.50;99.90;;;;;;5057953;28;20262;-88
2021/05/20 07:29:42;;;;;;;2.37;1.00;;;9.50;99.90;;;;;;5057772;28;20216;-88
2021/05/20 07:32:18;;;;;;;1.30;1.00;;;9.50;99.90;;;;;;5056646;28;20223;-88
2021/05/20 07:34:48;;;;;;;1.47;0.93;;;9.50;99.90;;;;;;5057620;28;20196;-88
2021/05/20 07:37:19;;;;;;;3.63;0.83;;;9.20;99.90;;;;;;5057559;28;20212;-88
2021/05/20 07:39:52;;;;;;;1.77;0.80;;;9.10;99.90;;;;;;5057153;28;20269;-88
2021/05/20 07:42:24;;;;;;;3.67;0.83;;;9.20;99.90;;;;;;5055983;28;20222;-88
2021/05/20 07:44:56;;;;;;;1.77;0.70;;;9.30;99.90;;;;;;5057328;28;20228;-88
2021/05/20 07:47:27;;;;;;;4.43;0.83;;;9.30;99.90;;;;;;5057393;28;20223;-87
2021/05/20 07:49:58;;;;;;;1.33;0.80;;;9.30;99.90;;;;;;5057687;28;20208;-89
2021/05/20 07:52:31;;;;;;;2.57;0.60;;;9.40;99.90;;;;;;5056461;28;20244;-88
2021/05/20 07:55:02;;;;;;;2.37;1.03;;;9.50;99.90;;;;;;5058168;28;20584;-89
2021/05/20 07:57:35;;;;;;;2.90;1.30;;;9.40;99.90;;;;;;5065943;28;20237;-89
2021/05/20 08:00:08;;;;;;;2.93;1.00;;;9.50;99.90;;;;;;5078500;28;20218;-91
2021/05/20 08:02:45;;;;;;;2.33;0.80;;;9.40;99.90;;;;;;5078701;28;20213;-88
2021/05/20 08:05:24;;;;;;;0.90;0.73;;;9.20;99.90;;;;;;5079950;28;20227;-88
2021/05/20 08:07:57;;;;;;;4.73;1.10;;;9.10;99.90;;;;;;5079274;28;20212;-88
2021/05/20 08:13:15;;;;;;;3.17;1.90;;;9.10;99.90;;;;;;5077343;28;20211;-88
2021/05/20 08:15:47;;;;;;;3.20;1.33;;;9.00;99.90;;;;;;5077192;28;20222;-88
2021/05/20 08:18:18;;;;;;;3.60;1.80;;;9.00;99.90;;;;;;5076179;28;20833;-88
2021/05/20 08:20:49;;;;;;;5.10;1.67;;;9.00;99.90;;;;;;5075342;28;20219;-88
2021/05/20 08:23:20;;;;;;;3.30;0.93;;;9.10;99.90;;;;;;5075521;28;20211;-87
2021/05/20 08:25:50;;;;;;;4.77;1.20;;;9.30;99.90;;;;;;5075592;28;20235;-88
2021/05/20 08:28:22;;;;;;;5.83;1.23;;;9.50;99.90;;;;;;5077554;28;20211;-88
2021/05/20 08:30:54;;;;;;;2.90;1.10;;;9.40;99.90;;;;;;5075332;28;20211;-87
2021/05/20 08:33:25;;;;;;;3.43;1.13;;;9.30;99.90;;;;;;5074258;28;20210;-88
2021/05/20 08:35:56;;;;;;;3.97;1.10;;;9.30;99.90;;;;;;5075376;28;20247;-88
2021/05/20 08:38:28;;;;;;;2.30;1.30;;;9.20;99.90;;;;;;5075071;28;20677;-88
2021/05/20 08:41:00;;;;;;;3.60;1.20;;;9.20;99.90;;;;;;5069150;28;20211;-87
2021/05/20 08:43:33;;;;;;;4.03;1.00;;;9.40;99.90;;;;;;5055267;28;20688;-88
2021/05/20 08:46:06;;;;;;;4.00;1.10;;;9.40;99.90;;;;;;5055681;28;20214;-88
2021/05/20 08:48:38;;;;;;;2.57;1.00;;;9.30;99.90;;;;;;5055490;28;20215;-88
2021/05/20 08:51:09;;;;;;;3.00;1.13;;;9.30;99.90;;;;;;5054749;28;20222;-88
2021/05/20 08:53:40;;;;;;;2.37;1.00;;;9.30;99.90;;;;;;5054984;28;20215;-88
2021/05/20 08:56:13;;;;;;;4.57;1.30;;;9.40;99.90;;;;;;5055429;28;20211;-88
2021/05/20 08:58:46;;;;;;;3.57;1.00;;;9.50;99.90;;;;;;5055304;28;20223;-88
2021/05/20 09:01:34;;;;;;;2.97;1.33;;;9.40;99.90;;;;;;5054578;28;20199;-88
2021/05/20 09:04:06;;;;;;;3.00;1.30;;;9.20;99.90;;;;;;5055300;28;20224;-88
2021/05/20 09:06:38;;;;;;;4.47;1.60;;;9.20;99.90;;;;;;5055531;28;20211;-88
2021/05/20 09:09:13;;;;;;;4.37;1.70;;;9.20;99.90;;;;;;5054972;28;20223;-88
2021/05/20 09:11:52;;;;;;;2.60;1.43;;;9.20;99.90;;;;;;5053937;28;20293;-89
2021/05/20 09:14:36;;;;;;;3.93;0.93;;;9.30;99.90;;;;;;5054819;28;20204;-88
2021/05/20 09:17:12;;;;;;;3.37;1.30;;;9.20;99.90;;;;;;5054945;28;20215;-88
2021/05/20 09:19:46;;;;;;;2.27;1.33;;;9.20;99.90;;;;;;5054898;28;20215;-88
2021/05/20 09:22:18;;;;;;;2.53;1.03;;;9.20;99.90;;;;;;5054269;28;20284;-88
2021/05/20 09:24:51;;;;;;;4.37;1.30;;;9.20;99.90;;;;;;5057435;28;20237;-87
2021/05/20 09:27:34;;;;;;;5.17;1.10;;;9.20;99.90;;;;;;5055809;28;20218;-88
2021/05/20 09:30:16;;;;;;;2.93;1.30;;;9.20;99.90;;;;;;5060128;28;20231;-91
2021/05/20 09:32:52;;;;;;;2.67;0.80;;;9.30;99.90;;;;;;5074292;28;20250;-88
2021/05/20 09:35:26;;;;;;;5.40;1.20;;;9.30;99.90;;;;;;5075126;28;20214;-88
2021/05/20 09:38:03;;;;;;;3.00;1.10;;;9.40;99.90;;;;;;5061482;28;20304;-88
2021/05/20 09:40:38;;;;;;;4.03;1.30;;;9.40;99.90;;;;;;5056026;28;20291;-89
2021/05/20 09:43:19;;;;;;;2.47;1.10;;;9.40;99.90;;;;;;5061238;28;20643;-88
2021/05/20 09:45:53;;;;;;;3.40;1.33;;;9.20;99.90;;;;;;5057141;28;20234;-88
2021/05/20 09:48:26;;;;;;;2.77;1.30;;;9.10;99.90;;;;;;5058959;28;20206;-88
2021/05/20 09:50:59;;;;;;;2.77;1.20;;;8.90;99.90;;;;;;5055610;28;20218;-89
2021/05/20 09:53:30;;;;;;;2.10;1.00;;;9.00;99.90;;;;;;5055541;28;20204;-88
2021/05/20 09:56:03;;;;;;;2.90;1.00;;;8.90;99.90;;;;;;5056371;28;20207;-88
2021/05/20 09:58:34;;;;;;;1.17;0.90;;;8.80;99.90;;;;;;5057021;28;20679;-88
2021/05/20 10:01:19;;;;;;;1.80;0.70;;;8.80;99.90;;;;;;5054421;28;20215;-88
2021/05/20 10:03:53;;;;;;;1.43;0.80;;;8.80;99.90;;;;;;5054420;28;20205;-88
2021/05/20 10:06:38;;;;;;;1.23;1.00;;;8.70;99.90;;;;;;5055465;28;20218;-88
2021/05/20 10:09:10;;;;;;;2.27;1.00;;;8.70;99.90;;;;;;5053961;28;20673;-88
2021/05/20 10:11:42;;;;;;;1.07;0.90;;;8.60;99.90;;;;;;5053018;28;20196;-88
2021/05/20 10:14:13;;;;;;;0.83;0.80;;;8.60;99.90;;;;;;5054068;28;20215;-88
2021/05/20 10:16:46;;;;;;;1.27;1.10;;;8.50;99.90;;;;;;5054437;28;20210;-87
2021/05/20 10:19:18;;;;;;;2.57;1.37;;;8.40;99.90;;;;;;5054258;28;20719;-88
2021/05/20 10:21:50;;;;;;;3.53;1.10;;;8.40;99.90;;;;;;5053120;28;20611;-88
2021/05/20 10:24:22;;;;;;;1.40;1.00;;;8.50;99.90;;;;;;5053168;28;20708;-88
2021/05/20 10:26:52;;;;;;;6.43;1.40;;;8.40;99.90;;;;;;5053681;28;20224;-88
2021/05/20 10:29:23;;;;;;;1.83;1.03;;;8.50;99.90;;;;;;5053887;28;20215;-88
2021/05/20 10:31:55;;;;;;;2.73;1.17;;;8.40;99.90;;;;;;5053045;28;20206;-88
2021/05/20 10:34:27;;;;;;;1.47;1.30;;;8.30;99.90;;;;;;5053554;28;20258;-88
2021/05/20 10:37:02;;;;;;;1.77;1.10;;;8.30;99.90;;;;;;5054268;28;20212;-87
2021/05/20 10:39:33;;;;;;;1.43;1.20;;;8.30;99.90;;;;;;5036479;28;20242;-88
2021/05/20 10:42:04;;;;;;;1.27;0.90;;;8.20;99.90;;;;;;5035666;28;20204;-87
2021/05/20 10:44:35;;;;;;;2.47;1.40;;;8.20;99.90;;;;;;5054872;28;20240;-88
2021/05/20 10:47:09;;;;;;;2.50;1.47;;;8.20;99.90;;;;;;5057217;28;20583;-88
2021/05/20 10:50:01;;;;;;;3.73;1.63;;;8.20;99.90;;;;;;5040613;28;20216;-88
2021/05/20 10:52:43;;;;;;;0.93;0.90;;;8.20;99.90;;;;;;5057456;28;20251;-88
2021/05/20 10:55:17;;;;;;;3.37;1.07;;;8.20;99.90;;;;;;5057824;28;20207;-89
2021/05/20 10:58:00;;;;;;;1.07;0.97;;;8.30;99.90;;;;;;5057935;28;20212;-88
2021/05/20 11:00:42;;;;;;;1.07;0.87;;;8.30;99.90;;;;;;5043194;28;20271;-88
2021/05/20 11:03:15;;;;;;;2.03;1.10;;;8.30;99.90;;;;;;5057866;28;20212;-88
2021/05/20 11:05:56;;;;;;;2.17;1.10;;;8.30;99.90;;;;;;5058964;28;20241;-88
2021/05/20 11:08:57;;;;;;;1.20;1.03;;;8.40;99.90;;;;;;5057093;28;20208;-89
2021/05/20 11:11:53;;;;;;;1.37;1.07;;;8.50;99.90;;;;;;5038942;28;20220;-88
2021/05/20 11:14:38;;;;;;;2.17;1.13;;;8.30;99.90;;;;;;5057208;28;20287;-88
2021/05/20 11:17:32;;;;;;;2.30;1.10;;;8.20;99.90;;;;;;5057129;28;20548;-88
2021/05/20 11:20:40;;;;;;;1.63;0.80;;;8.20;99.90;;;;;;5057213;28;20658;-87
2021/05/20 11:23:37;;;;;;;1.70;1.10;;;8.10;99.90;;;;;;5059058;28;20285;-88
2021/05/20 11:26:17;;;;;;;1.77;1.00;;;8.10;99.90;;;;;;5044282;28;20240;-88
2021/05/20 11:29:06;;;;;;;1.40;1.20;;;8.10;99.90;;;;;;5052077;28;20212;-88
2021/05/20 11:31:37;;;;;;;2.97;1.20;;;8.10;99.90;;;;;;5076367;28;20211;-88
2021/05/20 11:37:02;;;;;;;4.87;1.50;;;8.20;99.90;;;;;;5069014;28;20226;-88
2021/05/20 11:39:38;;;;;;;3.20;1.20;;;8.20;99.90;;;;;;5057419;28;20253;-87
2021/05/20 11:42:09;;;;;;;4.27;1.53;;;8.30;99.90;;;;;;5057043;28;20199;-88
2021/05/20 11:44:41;;;;;;;2.03;1.30;;;8.30;99.90;;;;;;5059039;28;20237;-88
2021/05/20 11:47:14;;;;;;;6.10;1.47;;;8.50;99.90;;;;;;5077236;28;20203;-89
2021/05/20 11:49:45;;;;;;;2.63;1.40;;;8.50;99.90;;;;;;5076803;28;20205;-88
2021/05/20 11:52:17;;;;;;;2.70;1.30;;;8.50;99.90;;;;;;5067499;28;20215;-88
2021/05/20 11:54:51;;;;;;;1.80;1.20;;;8.60;99.90;;;;;;5058892;28;20211;-88
2021/05/20 11:57:23;;;;;;;1.93;1.20;;;8.70;99.90;;;;;;5057572;28;20199;-88
2021/05/20 11:59:55;;;;;;;2.23;1.20;;;8.80;99.90;;;;;;5058035;28;20201;-89
2021/05/20 12:02:28;;;;;;;1.87;1.20;;;8.80;99.90;;;;;;5059671;28;20211;-88
2021/05/20 12:05:01;;;;;;;3.40;1.30;;;8.80;99.90;;;;;;5061484;28;20280;-88
2021/05/20 12:07:35;;;;;;;1.47;1.20;;;8.70;99.90;;;;;;5061658;28;20200;-88
2021/05/20 12:10:13;;;;;;;1.73;0.90;;;8.80;99.90;;;;;;5061940;28;20248;-90
2021/05/20 12:12:47;;;;;;;2.20;1.30;;;8.70;99.90;;;;;;5067482;28;20267;-89
2021/05/20 12:15:20;;;;;;;1.90;1.10;;;8.70;99.90;;;;;;5077173;28;20202;-88
2021/05/20 12:17:54;;;;;;;2.60;1.23;;;8.70;99.90;;;;;;5077501;28;20215;-88
2021/05/20 12:20:25;;;;;;;1.97;1.27;;;8.50;99.90;;;;;;5076744;28;20302;-89
2021/05/20 12:22:56;;;;;;;1.30;1.20;;;8.30;99.90;;;;;;5078213;28;20216;-88
2021/05/20 12:25:30;;;;;;;1.20;1.10;;;8.30;99.90;;;;;;5077287;28;20238;-89
2021/05/20 12:28:02;;;;;;;1.67;1.13;;;8.40;99.90;;;;;;5077648;28;20191;-88
2021/05/20 12:30:40;;;;;;;2.57;0.93;;;8.50;99.90;;;;;;5068595;28;20230;-88
2021/05/20 12:33:12;;;;;;;2.10;1.20;;;8.40;99.90;;;;;;5039377;28;20210;-88
2021/05/20 12:35:43;;;;;;;1.30;1.20;;;8.40;99.90;;;;;;5056770;28;20290;-88
2021/05/20 12:38:15;;;;;;;2.90;1.27;;;8.20;99.90;;;;;;5056546;28;20203;-87
2021/05/20 12:40:53;;;;;;;1.37;1.00;;;8.20;99.90;;;;;;5055437;28;20212;-88
2021/05/20 12:43:28;;;;;;;1.63;1.17;;;8.30;99.90;;;;;;5055822;28;20291;-88
2021/05/20 12:46:00;;;;;;;1.50;1.30;;;8.40;99.90;;;;;;5055907;28;20242;-89
2021/05/20 12:48:34;;;;;;;1.33;1.23;;;8.40;99.90;;;;;;5055885;28;21076;-89
2021/05/20 12:51:06;;;;;;;2.13;1.60;;;8.40;99.90;;;;;;5055494;28;20212;-89
2021/05/20 12:53:41;;;;;;;1.67;1.47;;;8.20;99.90;;;;;;5057563;28;20212;-88
2021/05/20 12:56:31;;;;;;;1.83;1.63;;;8.00;99.90;;;;;;5056295;28;20215;-88
2021/05/20 12:59:05;;;;;;;3.03;1.70;;;8.00;99.90;;;;;;5054887;28;20639;-89
2021/05/20 13:01:40;;;;;;;4.10;1.40;;;8.10;99.90;;;;;;5054548;28;20197;-89
2021/05/20 13:04:12;;;;;;;2.83;1.60;;;8.00;99.90;;;;;;5055371;28;20211;-89
2021/05/20 13:06:44;;;;;;;3.67;1.50;;;7.90;99.90;;;;;;5056998;28;20705;-88
2021/05/20 13:09:16;;;;;;;2.57;1.43;;;8.00;99.90;;;;;;5056222;28;20228;-89
2021/05/20 13:11:59;;;;;;;1.67;1.30;;;8.00;99.90;;;;;;5056885;28;20215;-89
2021/05/20 13:14:34;;;;;;;1.20;1.10;;;7.90;99.90;;;;;;5055909;28;20217;-89
2021/05/20 13:17:29;;;;;;;4.63;1.27;;;7.90;99.90;;;;;;5058186;28;20625;-88
2021/05/20 13:23:30;;;;;;;2.57;1.40;;;7.90;99.90;;;;;;5035233;28;20204;-88
2021/05/20 13:26:08;;;;;;;1.97;1.40;;;7.90;99.90;;;;;;5035022;28;20665;-88
2021/05/20 13:28:41;;;;;;;2.50;1.63;;;8.00;99.90;;;;;;5034778;28;20207;-88
2021/05/20 13:31:12;;;;;;;2.27;1.40;;;8.10;99.90;;;;;;5036955;28;20311;-89
2021/05/20 13:33:46;;;;;;;2.40;1.60;;;8.10;99.90;;;;;;5024038;28;20209;-88
2021/05/20 13:36:17;;;;;;;1.70;1.50;;;8.00;99.90;;;;;;5055065;28;20216;-88
2021/05/20 13:38:51;;;;;;;2.00;1.40;;;7.90;99.90;;;;;;5054922;28;20215;-88